Airfield :
LOGIN :

Register | Disclaimer

   EN    FR    IT 

 










Legend :    VFR   Marginal VFR   IFR   Intensive IFR   Very Intensive IFR
Visi :
Ceiling :
>= 8 km
>= 3000ft
5 to 8 km
1000 to 3000 ft
1500m to 5 km
500 to 1000 ft
800 to 1500m
200 to 500 ft
< 800m
< 200 ft
Symbols :   Thunderstorms  Fog  Heavy snow  Heavy precipitations  Wind > 20 kt
SIGMETs :     Misc.  Thunderstorms  Icing  Turbulence  Mountain Waves  Volcanic Ashes







- Airport Elevation : 364 ft
- Download approach charts


LFAQ - Albert Bray

CURRENT METAR :
  • 220600Z AUTO 28012KT 9000 BKN009 BKN013 OVC019 10/09 Q1008 TEMPO 3000 RA OVC004

EXPIRED METARs :
  • 220530Z AUTO 27011KT 9999 BKN012 OVC033 10/09 Q1008
  • 220500Z AUTO 27012KT 9999 BKN007 OVC012 10/10 Q1009
  • 220430Z AUTO 27011KT 9999 OVC010 10/10 Q1008
  • 220400Z AUTO 27011KT 9999 OVC011 11/10 Q1008
  • 220330Z AUTO 27010KT 9999 OVC009 11/10 Q1009

TAF TAF LFAQ
Valid from the 22 at 06:00 until the 22 at 15:00 UTC


220500Z 2206/2215 27010KT 9999 OVC009
TEMPO 2206/2210 3000 RA OVC004
BECMG 2210/2212 33010KT BKN017
No reported NOTAMs for that airfield.



MET'MAP, your aeronautical weather chart ! - Copyright ORBIFLY December 2007 - Disclaimer

ORBIFLY MET'MAP TEAM :

Programming & Development : Alexandra Zaïnal
Concept & Development : Baudouin d'Aumeries
Co-Development & Prog : Marc-Olivier Méhu
Technical & hardware support : Manuel Goepfert

Contact : metmap@orbifly.com




SOURCES & CREDITS :

   NOAA